createdAt,value
2023-05-01T00:00:16.556Z,26.18
2023-05-01T00:01:16.549Z,26.21
2023-05-01T00:02:16.592Z,26.20
2023-05-01T00:03:16.681Z,26.18
2023-05-01T00:04:16.933Z,26.18
2023-05-01T00:05:16.655Z,26.20
2023-05-01T00:06:16.700Z,26.18
2023-05-01T00:07:16.671Z,26.20
2023-05-01T00:08:16.711Z,26.20
2023-05-01T00:09:16.727Z,26.20
2023-05-01T00:10:16.752Z,26.20
2023-05-01T00:11:16.801Z,26.18
2023-05-01T00:12:16.811Z,26.20
2023-05-01T00:13:16.863Z,26.20
2023-05-01T00:14:16.882Z,26.21
2023-05-01T00:15:16.868Z,26.17
2023-05-01T00:16:17.022Z,26.18
2023-05-01T00:17:16.944Z,26.18
2023-05-01T00:18:17.049Z,26.18
2023-05-01T00:19:17.031Z,26.20
2023-05-01T00:20:17.042Z,26.20
2023-05-01T00:21:17.083Z,26.18
2023-05-01T00:22:17.128Z,26.21
2023-05-01T00:23:17.136Z,26.18
2023-05-01T00:24:17.330Z,26.20
2023-05-01T00:25:17.208Z,26.17
2023-05-01T00:26:17.236Z,26.17
2023-05-01T00:27:17.322Z,26.18
2023-05-01T00:28:17.283Z,26.17
2023-05-01T00:29:17.330Z,26.18
2023-05-01T00:30:17.390Z,26.15
2023-05-01T00:31:17.467Z,26.20
2023-05-01T00:32:17.515Z,26.17
2023-05-01T00:33:17.458Z,26.15
2023-05-01T00:34:17.506Z,26.15
2023-05-01T00:35:17.519Z,26.17
2023-05-01T00:36:17.598Z,26.15
2023-05-01T00:37:17.610Z,26.14
2023-05-01T00:38:17.604Z,26.15
2023-05-01T00:39:17.674Z,26.15
2023-05-01T00:40:17.713Z,26.17
2023-05-01T00:41:17.744Z,26.15
2023-05-01T00:42:17.761Z,26.12
2023-05-01T00:43:17.866Z,26.15
2023-05-01T00:44:17.792Z,26.14
2023-05-01T00:45:17.835Z,26.14
2023-05-01T00:46:17.928Z,26.14
2023-05-01T00:47:17.916Z,26.14
2023-05-01T00:48:17.965Z,26.15
2023-05-01T00:49:17.986Z,26.17
2023-05-01T00:50:18.018Z,26.15
2023-05-01T00:51:18.034Z,26.14
2023-05-01T00:52:18.100Z,26.14
2023-05-01T00:53:18.140Z,26.14
2023-05-01T00:54:18.169Z,26.14
2023-05-01T00:55:18.170Z,26.14
2023-05-01T00:56:18.606Z,26.14
2023-05-01T00:57:18.293Z,26.15
2023-05-01T00:58:18.296Z,26.15
2023-05-01T00:59:18.309Z,26.14
2023-05-01T01:00:18.451Z,26.17
2023-05-01T01:01:18.369Z,26.14
2023-05-01T01:02:18.381Z,26.15
2023-05-01T01:03:18.431Z,26.20
2023-05-01T01:04:18.451Z,26.20
2023-05-01T01:05:18.434Z,26.22
2023-05-01T01:06:18.504Z,26.22
2023-05-01T01:07:18.490Z,26.22
2023-05-01T01:08:18.528Z,26.25
2023-05-01T01:09:18.504Z,26.27
2023-05-01T01:10:18.601Z,26.30
2023-05-01T01:11:18.588Z,26.31
2023-05-01T01:12:18.567Z,26.35
2023-05-01T01:13:18.538Z,26.38
2023-05-01T01:14:18.563Z,26.38
2023-05-01T01:15:18.581Z,26.39
2023-05-01T01:16:18.620Z,26.42
2023-05-01T01:17:18.610Z,26.42
2023-05-01T01:18:18.563Z,26.48
2023-05-01T01:19:18.541Z,26.48
2023-05-01T01:20:18.556Z,26.49
2023-05-01T01:21:18.549Z,26.52
2023-05-01T01:22:18.547Z,26.55
2023-05-01T01:23:18.557Z,26.56
2023-05-01T01:24:18.617Z,26.58
2023-05-01T01:25:18.657Z,26.63
2023-05-01T01:26:18.681Z,26.63
2023-05-01T01:27:18.730Z,26.66
2023-05-01T01:28:18.779Z,26.66
2023-05-01T01:29:18.858Z,26.69
2023-05-01T01:30:18.906Z,26.72
2023-05-01T01:31:19.041Z,26.75
2023-05-01T01:32:19.036Z,26.73
2023-05-01T01:33:19.078Z,26.73
2023-05-01T01:34:19.155Z,26.75
2023-05-01T01:35:19.239Z,26.79
2023-05-01T01:36:19.320Z,26.81
2023-05-01T01:37:19.359Z,26.82
2023-05-01T01:38:19.411Z,26.83
2023-05-01T01:39:19.571Z,26.85
2023-05-01T01:40:19.551Z,26.86
2023-05-01T01:41:19.593Z,26.86
2023-05-01T01:42:19.681Z,26.87
2023-05-01T01:43:19.709Z,26.90
2023-05-01T01:44:19.768Z,26.90
2023-05-01T01:45:19.853Z,26.89
2023-05-01T01:46:19.917Z,26.92
2023-05-01T01:47:19.941Z,26.92
2023-05-01T01:48:20.004Z,26.94
2023-05-01T01:49:20.969Z,26.96
2023-05-01T01:50:20.104Z,26.97
2023-05-01T01:51:20.174Z,26.96
2023-05-01T01:52:20.203Z,26.97
2023-05-01T01:53:20.254Z,26.97
2023-05-01T01:54:20.307Z,26.97
2023-05-01T01:55:20.374Z,27.02
2023-05-01T01:56:20.397Z,27.00
2023-05-01T01:57:20.465Z,27.00
2023-05-01T01:58:20.536Z,27.02
2023-05-01T01:59:20.597Z,26.99
2023-05-01T02:00:20.700Z,27.00
2023-05-01T02:01:20.717Z,27.03
2023-05-01T02:02:20.752Z,27.02
2023-05-01T02:03:20.855Z,27.03
2023-05-01T02:04:20.893Z,27.04
2023-05-01T02:05:20.878Z,27.04
2023-05-01T02:06:21.015Z,27.03
2023-05-01T02:07:20.967Z,27.03
2023-05-01T02:08:21.016Z,27.07
2023-05-01T02:09:21.137Z,27.06
2023-05-01T02:10:21.148Z,27.06
2023-05-01T02:11:21.223Z,27.07
2023-05-01T02:12:21.211Z,27.06
2023-05-01T02:13:21.257Z,27.10
2023-05-01T02:14:21.313Z,27.11
2023-05-01T02:15:21.353Z,27.09
2023-05-01T02:16:21.447Z,27.10
2023-05-01T02:17:21.537Z,27.11
2023-05-01T02:18:21.515Z,27.10
2023-05-01T02:19:21.560Z,27.11
2023-05-01T02:20:21.608Z,27.11
2023-05-01T02:21:21.647Z,27.13
2023-05-01T02:22:21.701Z,27.11
2023-05-01T02:23:21.730Z,27.14
2023-05-01T02:24:21.804Z,27.10
2023-05-01T02:25:21.828Z,27.11
2023-05-01T02:26:21.945Z,27.13
2023-05-01T02:27:21.953Z,27.10
2023-05-01T02:28:21.983Z,27.13
2023-05-01T02:29:22.024Z,27.13
2023-05-01T02:30:22.055Z,27.13
2023-05-01T02:31:22.139Z,27.14
2023-05-01T02:32:22.158Z,27.13
2023-05-01T02:33:22.170Z,27.14
2023-05-01T02:34:22.263Z,27.11
2023-05-01T02:35:22.287Z,27.11
2023-05-01T02:36:22.301Z,27.11
2023-05-01T02:37:22.352Z,27.11
2023-05-01T02:38:22.393Z,27.13
2023-05-01T02:39:22.481Z,27.13
2023-05-01T02:40:22.507Z,27.13
2023-05-01T02:41:22.557Z,27.11
2023-05-01T02:42:22.584Z,27.11
2023-05-01T02:43:22.631Z,27.10
2023-05-01T02:44:22.677Z,27.11
2023-05-01T02:45:22.739Z,27.10
2023-05-01T02:46:22.785Z,27.11
2023-05-01T02:47:22.991Z,27.11
2023-05-01T02:48:22.856Z,27.13
2023-05-01T02:49:22.878Z,27.11
2023-05-01T02:50:22.934Z,27.10
2023-05-01T02:51:22.991Z,27.10
2023-05-01T02:52:23.071Z,27.14
2023-05-01T02:53:23.107Z,27.13
2023-05-01T02:54:23.153Z,27.13
2023-05-01T02:55:23.197Z,27.10
2023-05-01T02:56:23.242Z,27.11
2023-05-01T02:57:23.298Z,27.10
2023-05-01T02:58:23.320Z,27.10
2023-05-01T02:59:23.382Z,27.10
2023-05-01T03:00:23.426Z,27.07
2023-05-01T03:01:23.515Z,27.09
2023-05-01T03:02:23.530Z,27.06
2023-05-01T03:03:23.578Z,27.07
2023-05-01T03:04:23.682Z,27.04
2023-05-01T03:05:23.661Z,27.09
2023-05-01T03:06:23.748Z,27.07
2023-05-01T03:07:23.766Z,27.06
2023-05-01T03:08:23.785Z,27.04
2023-05-01T03:09:23.875Z,27.04
2023-05-01T03:10:23.884Z,27.04
2023-05-01T03:11:23.964Z,27.04
2023-05-01T03:12:24.000Z,27.03
2023-05-01T03:13:24.072Z,27.04
2023-05-01T03:14:24.116Z,27.03
2023-05-01T03:15:24.200Z,27.04
2023-05-01T03:16:24.278Z,27.04
2023-05-01T03:17:24.252Z,27.03
2023-05-01T03:18:24.323Z,27.04
2023-05-01T03:19:24.341Z,27.03
2023-05-01T03:20:25.302Z,27.04
2023-05-01T03:21:24.446Z,27.04
2023-05-01T03:22:24.512Z,27.00
2023-05-01T03:23:24.563Z,27.00
2023-05-01T03:24:24.613Z,26.99
2023-05-01T03:25:24.750Z,27.00
2023-05-01T03:26:24.751Z,27.00
2023-05-01T03:27:24.750Z,27.00
2023-05-01T03:28:24.826Z,27.02
2023-05-01T03:29:24.889Z,26.99
2023-05-01T03:30:24.935Z,26.99
2023-05-01T03:31:25.005Z,26.97
2023-05-01T03:32:25.473Z,26.99
2023-05-01T03:33:25.097Z,26.97
2023-05-01T03:34:25.150Z,26.97
2023-05-01T03:35:25.241Z,27.00
2023-05-01T03:36:25.318Z,26.99
2023-05-01T03:37:25.305Z,26.97
2023-05-01T03:38:25.392Z,26.96
2023-05-01T03:39:25.427Z,26.97
2023-05-01T03:40:25.501Z,26.96
2023-05-01T03:41:25.535Z,26.99
2023-05-01T03:42:25.623Z,26.94
2023-05-01T03:43:25.746Z,26.97
2023-05-01T03:44:25.755Z,26.96
2023-05-01T03:45:25.791Z,26.94
2023-05-01T03:46:25.944Z,26.93
2023-05-01T03:47:25.923Z,26.96
2023-05-01T03:48:25.981Z,26.94
2023-05-01T03:49:26.008Z,26.94
2023-05-01T03:50:26.069Z,26.94
2023-05-01T03:51:26.163Z,26.94
2023-05-01T03:52:26.177Z,26.96
2023-05-01T03:53:26.364Z,26.94
2023-05-01T03:54:26.306Z,26.93
2023-05-01T03:55:26.350Z,26.94
2023-05-01T03:56:26.447Z,26.93
2023-05-01T03:57:26.504Z,26.93
2023-05-01T03:58:26.541Z,26.92
2023-05-01T03:59:26.609Z,26.92
2023-05-01T04:00:26.674Z,26.92
2023-05-01T04:01:26.728Z,26.92
2023-05-01T04:02:26.854Z,26.89
2023-05-01T04:03:26.924Z,26.90
2023-05-01T04:04:26.974Z,26.90
2023-05-01T04:05:27.003Z,26.89
2023-05-01T04:06:27.042Z,26.92
2023-05-01T04:07:27.118Z,26.89
2023-05-01T04:08:27.166Z,26.90
2023-05-01T04:09:27.257Z,26.89
2023-05-01T04:10:27.288Z,26.87
2023-05-01T04:11:27.362Z,26.90
2023-05-01T04:12:27.436Z,26.86
2023-05-01T04:13:27.460Z,26.89
2023-05-01T04:14:27.553Z,26.89
2023-05-01T04:15:27.595Z,26.87
2023-05-01T04:16:27.656Z,26.87
2023-05-01T04:17:27.733Z,26.89
2023-05-01T04:18:27.777Z,26.85
2023-05-01T04:19:27.830Z,26.86
2023-05-01T04:20:27.931Z,26.85
2023-05-01T04:21:27.978Z,26.86
2023-05-01T04:22:28.056Z,26.85
2023-05-01T04:23:28.117Z,26.87
2023-05-01T04:24:28.171Z,26.85
2023-05-01T04:25:28.277Z,26.85
2023-05-01T04:26:28.299Z,26.85
2023-05-01T04:27:28.359Z,26.83
2023-05-01T04:28:28.438Z,26.82
2023-05-01T04:29:28.487Z,26.83
2023-05-01T04:30:28.531Z,26.83
2023-05-01T04:31:28.608Z,26.82
2023-05-01T04:32:28.678Z,26.83
2023-05-01T04:33:28.778Z,26.83
2023-05-01T04:34:28.806Z,26.83
2023-05-01T04:35:28.855Z,26.83
2023-05-01T04:36:28.927Z,26.81
2023-05-01T04:37:28.978Z,26.82
2023-05-01T04:38:29.085Z,26.82
2023-05-01T04:39:29.073Z,26.83
2023-05-01T04:40:29.129Z,26.82
2023-05-01T04:41:29.219Z,26.79
2023-05-01T04:42:29.341Z,26.85
2023-05-01T04:43:29.338Z,26.82
2023-05-01T04:44:29.386Z,26.81
2023-05-01T04:45:29.462Z,26.82
2023-05-01T04:46:29.559Z,26.81
2023-05-01T04:47:29.573Z,26.79
2023-05-01T04:48:29.637Z,26.78
2023-05-01T04:49:29.686Z,26.79
2023-05-01T04:50:29.774Z,26.79
2023-05-01T04:51:29.896Z,26.81
2023-05-01T04:52:29.896Z,26.81
2023-05-01T04:53:30.040Z,26.81
2023-05-01T04:54:30.040Z,26.78
2023-05-01T04:55:31.112Z,26.79
2023-05-01T04:56:30.154Z,26.78
2023-05-01T04:57:30.212Z,26.79
2023-05-01T04:58:30.267Z,26.76
2023-05-01T04:59:30.341Z,26.79
2023-05-01T05:00:31.184Z,26.78
2023-05-01T05:01:37.737Z,26.81
2023-05-01T05:02:30.968Z,26.82
2023-05-01T05:03:30.859Z,26.76
2023-05-01T05:04:30.422Z,26.78
2023-05-01T05:05:30.373Z,26.76
2023-05-01T05:06:30.433Z,26.78
2023-05-01T05:07:30.350Z,26.79
2023-05-01T05:08:30.374Z,26.76
2023-05-01T05:09:30.348Z,26.76
2023-05-01T05:10:30.329Z,26.75
2023-05-01T05:11:30.350Z,26.78
2023-05-01T05:12:30.332Z,26.76
2023-05-01T05:13:30.394Z,26.75
2023-05-01T05:14:30.331Z,26.76
2023-05-01T05:15:30.311Z,26.76
2023-05-01T05:16:30.378Z,26.75
2023-05-01T05:17:30.409Z,26.75
2023-05-01T05:18:30.293Z,26.76
2023-05-01T05:19:30.309Z,26.75
2023-05-01T05:20:30.470Z,26.76
2023-05-01T05:21:30.641Z,26.76
2023-05-01T05:22:30.544Z,26.76
2023-05-01T05:23:30.484Z,26.73
2023-05-01T05:24:30.429Z,26.73
2023-05-01T05:25:30.514Z,26.75
2023-05-01T05:26:30.593Z,26.73
2023-05-01T05:27:30.643Z,26.75
2023-05-01T05:28:30.712Z,26.75
2023-05-01T05:29:30.737Z,26.75
2023-05-01T05:30:30.773Z,26.72
2023-05-01T05:31:30.930Z,26.75
2023-05-01T05:32:31.001Z,26.76
2023-05-01T05:33:30.976Z,26.76
2023-05-01T05:34:31.028Z,26.75
2023-05-01T05:35:31.058Z,26.75
2023-05-01T05:36:31.137Z,26.75
2023-05-01T05:37:31.187Z,26.73
2023-05-01T05:38:31.212Z,26.75
2023-05-01T05:39:31.650Z,26.73
2023-05-01T05:40:31.344Z,26.75
2023-05-01T05:41:31.369Z,26.72
2023-05-01T05:42:31.452Z,26.71
2023-05-01T05:43:31.425Z,26.71
2023-05-01T05:44:31.469Z,26.71
2023-05-01T05:45:39.129Z,26.72
2023-05-01T05:46:31.584Z,26.73
2023-05-01T05:47:31.475Z,26.72
2023-05-01T05:48:31.496Z,26.75
2023-05-01T05:49:31.472Z,26.72
2023-05-01T05:50:31.499Z,26.72
2023-05-01T05:51:31.422Z,26.71
2023-05-01T05:52:31.442Z,26.71
2023-05-01T05:53:31.476Z,26.71
2023-05-01T05:54:31.417Z,26.72
2023-05-01T05:55:31.493Z,26.71
2023-05-01T05:56:31.433Z,26.68
2023-05-01T05:57:31.453Z,26.69
2023-05-01T05:58:31.412Z,26.69
2023-05-01T05:59:31.385Z,26.71
2023-05-01T06:00:31.397Z,26.69
2023-05-01T06:01:31.400Z,26.73
2023-05-01T06:02:31.475Z,26.72
2023-05-01T06:03:31.489Z,26.71
2023-05-01T06:04:31.350Z,26.71
2023-05-01T06:05:31.394Z,26.71
2023-05-01T06:06:31.328Z,26.71
2023-05-01T06:07:31.355Z,26.71
2023-05-01T06:08:31.347Z,26.69
2023-05-01T06:09:31.327Z,26.69
2023-05-01T06:10:31.332Z,26.71
2023-05-01T06:11:31.337Z,26.71
2023-05-01T06:12:31.313Z,26.71
2023-05-01T06:13:31.271Z,26.69
2023-05-01T06:14:31.291Z,26.69
2023-05-01T06:15:31.377Z,26.69
2023-05-01T06:16:31.347Z,26.68
2023-05-01T06:17:31.287Z,26.71
2023-05-01T06:18:31.253Z,26.68
2023-05-01T06:19:31.273Z,26.69
2023-05-01T06:20:31.251Z,26.69
2023-05-01T06:21:31.238Z,26.72
2023-05-01T06:22:31.243Z,26.71
2023-05-01T06:23:31.208Z,26.69
2023-05-01T06:24:31.220Z,26.68
2023-05-01T06:25:31.268Z,26.69
2023-05-01T06:26:31.306Z,26.68
2023-05-01T06:27:31.314Z,26.68
2023-05-01T06:28:31.367Z,26.69
2023-05-01T06:29:31.374Z,26.66
2023-05-01T06:30:31.402Z,26.72
2023-05-01T06:31:31.474Z,26.72
2023-05-01T06:32:31.557Z,26.71
2023-05-01T06:33:31.484Z,26.69
2023-05-01T06:34:31.516Z,26.69
2023-05-01T06:35:31.527Z,26.68
2023-05-01T06:36:31.568Z,26.71
2023-05-01T06:37:31.558Z,26.69
2023-05-01T06:38:31.548Z,26.71
2023-05-01T06:39:31.593Z,26.72
2023-05-01T06:40:31.604Z,26.71
2023-05-01T06:41:31.604Z,26.71
2023-05-01T06:42:31.622Z,26.69
2023-05-01T06:43:31.729Z,26.69
2023-05-01T06:44:32.960Z,26.71
2023-05-01T06:45:31.664Z,26.71
2023-05-01T06:46:31.681Z,26.71
2023-05-01T06:47:31.694Z,26.69
2023-05-01T06:48:31.673Z,26.71
2023-05-01T06:49:31.697Z,26.71
2023-05-01T06:50:31.658Z,26.71
2023-05-01T06:51:31.714Z,26.69
2023-05-01T06:52:31.717Z,26.71
2023-05-01T06:53:31.714Z,26.71
2023-05-01T06:54:31.743Z,26.71
2023-05-01T06:55:33.270Z,26.71
2023-05-01T06:56:31.742Z,26.71
2023-05-01T06:57:31.758Z,26.69
2023-05-01T06:58:31.762Z,26.71
2023-05-01T06:59:31.822Z,26.71
2023-05-01T07:00:31.794Z,26.69
2023-05-01T07:01:34.723Z,26.71
2023-05-01T07:02:31.914Z,26.71
2023-05-01T07:03:31.850Z,26.72
2023-05-01T07:04:31.779Z,26.73
2023-05-01T07:05:31.755Z,26.69
2023-05-01T07:06:31.816Z,26.71
2023-05-01T07:07:31.774Z,26.71
2023-05-01T07:08:31.763Z,26.71
2023-05-01T07:09:31.739Z,26.68
2023-05-01T07:10:31.736Z,26.71
2023-05-01T07:11:31.750Z,26.71
2023-05-01T07:12:31.712Z,26.69
2023-05-01T07:13:31.715Z,26.71
2023-05-01T07:14:31.733Z,26.69
2023-05-01T07:15:31.704Z,26.69
2023-05-01T07:16:31.796Z,26.68
2023-05-01T07:17:31.722Z,26.69
2023-05-01T07:18:31.659Z,26.72
2023-05-01T07:19:31.666Z,26.71
2023-05-01T07:20:31.676Z,26.71
2023-05-01T07:21:31.695Z,26.72
2023-05-01T07:22:31.648Z,26.72
2023-05-01T07:23:31.672Z,26.71
2023-05-01T07:24:31.644Z,26.69
2023-05-01T07:25:31.628Z,26.71
2023-05-01T07:26:31.619Z,26.72
2023-05-01T07:27:31.625Z,26.68
2023-05-01T07:28:31.609Z,26.69
2023-05-01T07:29:31.633Z,26.71
2023-05-01T07:30:31.613Z,26.71
2023-05-01T07:31:31.600Z,26.72
2023-05-01T07:32:31.615Z,26.71
2023-05-01T07:33:31.586Z,26.71
2023-05-01T07:34:31.581Z,26.71
2023-05-01T07:35:31.567Z,26.71
2023-05-01T07:36:31.563Z,26.71
2023-05-01T07:37:31.545Z,26.71
2023-05-01T07:38:31.567Z,26.71
2023-05-01T07:39:31.548Z,26.71
2023-05-01T07:40:31.505Z,26.71
2023-05-01T07:41:31.493Z,26.71
2023-05-01T07:42:31.522Z,26.71
2023-05-01T07:43:31.496Z,26.71
2023-05-01T07:44:31.492Z,26.71
2023-05-01T07:45:31.596Z,26.69
2023-05-01T07:46:31.567Z,26.72
2023-05-01T07:47:31.514Z,26.71
2023-05-01T07:48:31.469Z,26.71
2023-05-01T07:49:31.481Z,26.71
2023-05-01T07:50:31.444Z,26.69
2023-05-01T07:51:31.480Z,26.68
2023-05-01T07:52:31.434Z,26.72
2023-05-01T07:53:31.421Z,26.68
2023-05-01T07:54:31.408Z,26.72
2023-05-01T07:55:31.431Z,26.69
2023-05-01T07:56:31.416Z,26.71
2023-05-01T07:57:31.444Z,26.73
2023-05-01T07:58:31.380Z,26.71
2023-05-01T07:59:31.400Z,26.69
2023-05-01T08:00:31.401Z,26.71
2023-05-01T08:01:31.378Z,26.69
2023-05-01T08:02:31.492Z,26.72
2023-05-01T08:03:31.603Z,26.72
2023-05-01T08:04:31.545Z,26.72
2023-05-01T08:05:31.502Z,26.71
2023-05-01T08:06:31.572Z,26.71
2023-05-01T08:07:31.532Z,26.72
2023-05-01T08:08:31.614Z,26.75
2023-05-01T08:09:31.564Z,26.73
2023-05-01T08:10:31.627Z,26.73
2023-05-01T08:11:31.636Z,26.72
2023-05-01T08:12:31.703Z,26.73
2023-05-01T08:13:31.786Z,26.73
2023-05-01T08:14:31.762Z,26.72
2023-05-01T08:15:31.805Z,26.76
2023-05-01T08:16:31.966Z,26.75
2023-05-01T08:17:31.912Z,26.75
2023-05-01T08:18:31.943Z,26.75
2023-05-01T08:19:31.956Z,26.75
2023-05-01T08:20:32.017Z,26.75
2023-05-01T08:21:32.053Z,26.75
2023-05-01T08:22:32.080Z,26.75
2023-05-01T08:23:32.161Z,26.73
2023-05-01T08:24:32.191Z,26.73
2023-05-01T08:25:32.221Z,26.78
2023-05-01T08:26:32.228Z,26.75
2023-05-01T08:27:32.289Z,26.76
2023-05-01T08:28:32.338Z,26.79
2023-05-01T08:29:32.337Z,26.78
2023-05-01T08:30:32.385Z,26.78
2023-05-01T08:31:32.482Z,26.78
2023-05-01T08:32:32.588Z,26.79
2023-05-01T08:33:32.560Z,26.78
2023-05-01T08:34:32.613Z,26.78
2023-05-01T08:35:32.650Z,26.78
2023-05-01T08:36:32.713Z,26.81
2023-05-01T08:37:32.744Z,26.81
2023-05-01T08:38:32.823Z,26.81
2023-05-01T08:39:32.898Z,26.79
2023-05-01T08:40:32.922Z,26.79
2023-05-01T08:41:33.010Z,26.78
2023-05-01T08:42:33.071Z,26.79
2023-05-01T08:43:33.126Z,26.79
2023-05-01T08:44:33.213Z,26.79
2023-05-01T08:45:33.250Z,26.81
2023-05-01T08:46:33.352Z,26.81
2023-05-01T08:47:33.469Z,26.81
2023-05-01T08:48:33.426Z,26.82
2023-05-01T08:49:33.490Z,26.81
2023-05-01T08:50:33.545Z,26.83
2023-05-01T08:51:33.617Z,26.81
2023-05-01T08:52:33.669Z,26.82
2023-05-01T08:53:33.776Z,26.83
2023-05-01T08:54:33.774Z,26.85
2023-05-01T08:55:33.894Z,26.83
2023-05-01T08:56:33.918Z,26.83
2023-05-01T08:57:33.972Z,26.83
2023-05-01T08:58:34.046Z,26.85
2023-05-01T08:59:34.113Z,26.85
2023-05-01T09:00:34.160Z,26.85
2023-05-01T09:01:34.273Z,26.85
2023-05-01T09:02:34.375Z,26.87
2023-05-01T09:03:34.490Z,26.87
2023-05-01T09:04:34.418Z,26.87
2023-05-01T09:05:34.478Z,26.87
2023-05-01T09:06:34.625Z,26.89
2023-05-01T09:07:34.622Z,26.90
2023-05-01T09:08:34.659Z,26.89
2023-05-01T09:09:34.739Z,26.89
2023-05-01T09:10:34.762Z,26.90
2023-05-01T09:11:34.932Z,26.90
2023-05-01T09:12:34.899Z,26.90
2023-05-01T09:13:34.985Z,26.87
2023-05-01T09:14:35.120Z,26.89
2023-05-01T09:15:35.035Z,26.89
2023-05-01T09:16:35.203Z,26.90
2023-05-01T09:17:35.251Z,26.90
2023-05-01T09:18:35.258Z,26.92
2023-05-01T09:19:35.300Z,26.93
2023-05-01T09:20:35.388Z,26.94
2023-05-01T09:21:35.393Z,26.92
2023-05-01T09:22:35.533Z,26.92
2023-05-01T09:23:35.527Z,26.94
2023-05-01T09:24:35.581Z,26.94
2023-05-01T09:25:35.628Z,26.93
2023-05-01T09:26:35.735Z,26.92
2023-05-01T09:27:35.729Z,26.92
2023-05-01T09:28:35.788Z,26.93
2023-05-01T09:29:35.874Z,26.94
2023-05-01T09:30:35.916Z,26.96
2023-05-01T09:31:36.002Z,26.96
2023-05-01T09:32:36.057Z,26.96
2023-05-01T09:33:36.098Z,26.94
2023-05-01T09:34:36.115Z,26.94
2023-05-01T09:35:36.162Z,26.99
2023-05-01T09:36:36.252Z,26.97
2023-05-01T09:37:36.302Z,26.97
2023-05-01T09:38:36.364Z,27.00
2023-05-01T09:39:36.451Z,26.99
2023-05-01T09:40:36.436Z,26.99
2023-05-01T09:41:36.509Z,27.00
2023-05-01T09:42:36.554Z,27.02
2023-05-01T09:43:36.635Z,27.02
2023-05-01T09:44:36.675Z,27.03
2023-05-01T09:45:36.760Z,27.03
2023-05-01T09:46:36.892Z,27.03
2023-05-01T09:47:36.874Z,27.03
2023-05-01T09:48:36.930Z,27.03
2023-05-01T09:49:36.944Z,27.06
2023-05-01T09:50:36.970Z,27.07
2023-05-01T09:51:37.032Z,27.09
2023-05-01T09:52:37.080Z,27.09
2023-05-01T09:53:37.090Z,27.10
2023-05-01T09:54:37.175Z,27.10
2023-05-01T09:55:37.183Z,27.07
2023-05-01T09:56:37.300Z,27.07
2023-05-01T09:57:37.313Z,27.09
2023-05-01T09:58:37.329Z,27.10
2023-05-01T09:59:37.393Z,27.09
2023-05-01T10:00:37.434Z,27.10
2023-05-01T10:01:37.595Z,27.10
2023-05-01T10:02:37.618Z,27.09
2023-05-01T10:03:37.748Z,27.11
2023-05-01T10:04:37.632Z,27.13
2023-05-01T10:05:37.679Z,27.11
2023-05-01T10:06:37.824Z,27.11
2023-05-01T10:07:37.768Z,27.14
2023-05-01T10:08:37.815Z,27.13
2023-05-01T10:09:37.881Z,27.11
2023-05-01T10:10:37.885Z,27.13
2023-05-01T10:11:37.916Z,27.11
2023-05-01T10:12:37.961Z,27.14
2023-05-01T10:13:38.019Z,27.14
2023-05-01T10:14:38.081Z,27.13
2023-05-01T10:15:38.083Z,27.13
2023-05-01T10:16:38.254Z,27.14
2023-05-01T10:17:38.182Z,27.16
2023-05-01T10:18:38.228Z,27.14
2023-05-01T10:19:38.252Z,27.16
2023-05-01T10:20:38.278Z,27.13
2023-05-01T10:21:38.339Z,27.16
2023-05-01T10:22:38.373Z,27.16
2023-05-01T10:23:38.388Z,27.16
2023-05-01T10:24:38.448Z,27.17
2023-05-01T10:25:38.520Z,27.17
2023-05-01T10:26:38.523Z,27.16
2023-05-01T10:27:38.625Z,27.17
2023-05-01T10:28:38.618Z,27.14
2023-05-01T10:29:38.770Z,27.17
2023-05-01T10:30:38.682Z,27.14
2023-05-01T10:31:40.731Z,27.16
2023-05-01T10:32:38.998Z,27.18
2023-05-01T10:33:38.738Z,27.17
2023-05-01T10:34:38.709Z,27.16
2023-05-01T10:35:38.722Z,27.17
2023-05-01T10:36:38.734Z,27.14
2023-05-01T10:37:38.716Z,27.14
2023-05-01T10:38:38.697Z,27.16
2023-05-01T10:39:38.732Z,27.18
2023-05-01T10:40:39.339Z,27.13
2023-05-01T10:41:38.721Z,27.14
2023-05-01T10:42:38.669Z,27.18
2023-05-01T10:43:38.661Z,27.14
2023-05-01T10:44:38.664Z,27.16
2023-05-01T10:45:38.646Z,27.14
2023-05-01T10:46:38.714Z,27.14
2023-05-01T10:47:38.703Z,27.14
2023-05-01T10:48:38.601Z,27.14
2023-05-01T10:49:38.656Z,27.13
2023-05-01T10:50:38.593Z,27.14
2023-05-01T10:51:38.617Z,27.14
2023-05-01T10:52:38.589Z,27.13
2023-05-01T10:53:38.597Z,27.14
2023-05-01T10:54:38.582Z,27.16
2023-05-01T10:55:38.566Z,27.14
2023-05-01T10:56:38.565Z,27.16
2023-05-01T10:57:38.584Z,27.16
2023-05-01T10:58:38.584Z,27.16
2023-05-01T10:59:38.562Z,27.16
2023-05-01T11:00:38.582Z,27.17
2023-05-01T11:01:38.580Z,27.17
2023-05-01T11:02:38.608Z,27.18
2023-05-01T11:03:38.573Z,27.18
2023-05-01T11:04:38.570Z,27.18
2023-05-01T11:05:38.897Z,27.18
2023-05-01T11:06:38.645Z,27.18
2023-05-01T11:07:38.535Z,27.18
2023-05-01T11:08:38.529Z,27.17
2023-05-01T11:09:38.484Z,27.18
2023-05-01T11:10:38.456Z,27.18
2023-05-01T11:11:38.573Z,27.20
2023-05-01T11:12:38.500Z,27.18
2023-05-01T11:13:38.471Z,27.22
2023-05-01T11:14:38.495Z,27.18
2023-05-01T11:15:38.628Z,27.18
2023-05-01T11:16:38.835Z,27.22
2023-05-01T11:17:38.673Z,27.20
2023-05-01T11:18:38.658Z,27.22
2023-05-01T11:19:38.698Z,27.23
2023-05-01T11:20:38.735Z,27.20
2023-05-01T11:21:38.802Z,27.22
2023-05-01T11:22:38.845Z,27.22
2023-05-01T11:23:38.856Z,27.22
2023-05-01T11:24:38.861Z,27.22
2023-05-01T11:25:38.959Z,27.22
2023-05-01T11:26:38.985Z,27.22
2023-05-01T11:27:39.024Z,27.23
2023-05-01T11:28:39.025Z,27.18
2023-05-01T11:29:39.072Z,27.23
2023-05-01T11:30:39.161Z,27.22
2023-05-01T11:31:39.234Z,27.20
2023-05-01T11:32:39.243Z,27.20
2023-05-01T11:33:39.279Z,27.18
2023-05-01T11:34:39.321Z,27.20
2023-05-01T11:35:39.377Z,27.20
2023-05-01T11:36:39.393Z,27.18
2023-05-01T11:37:39.435Z,27.18
2023-05-01T11:38:39.449Z,27.20
2023-05-01T11:39:39.485Z,27.20
2023-05-01T11:40:39.526Z,27.20
2023-05-01T11:41:39.599Z,27.20
2023-05-01T11:42:39.642Z,27.18
2023-05-01T11:43:39.690Z,27.20
2023-05-01T11:44:39.718Z,27.20
2023-05-01T11:45:39.844Z,27.18
2023-05-01T11:46:39.803Z,27.20
2023-05-01T11:47:39.961Z,27.20
2023-05-01T11:48:39.890Z,27.22
2023-05-01T11:49:39.913Z,27.20
2023-05-01T11:50:39.963Z,27.20
2023-05-01T11:51:40.009Z,27.22
2023-05-01T11:52:40.055Z,27.22
2023-05-01T11:53:40.124Z,27.22
2023-05-01T11:54:40.143Z,27.23
2023-05-01T11:55:40.342Z,27.20
2023-05-01T11:56:40.225Z,27.22
2023-05-01T11:57:40.262Z,27.22
2023-05-01T11:58:40.363Z,27.20
2023-05-01T11:59:40.363Z,27.22
2023-05-01T12:00:40.374Z,27.20
2023-05-01T12:01:40.425Z,27.20
2023-05-01T12:02:40.578Z,27.18
2023-05-01T12:03:40.633Z,27.20
2023-05-01T12:04:40.601Z,27.22
2023-05-01T12:05:40.572Z,27.23
2023-05-01T12:06:40.801Z,27.23
2023-05-01T12:07:40.673Z,27.20
2023-05-01T12:08:40.701Z,27.23
2023-05-01T12:09:40.742Z,27.22
2023-05-01T12:10:40.832Z,27.20
2023-05-01T12:11:40.865Z,27.23
2023-05-01T12:12:40.910Z,27.22
2023-05-01T12:13:40.924Z,27.22
2023-05-01T12:14:40.989Z,27.23
2023-05-01T12:15:41.008Z,27.20
2023-05-01T12:16:41.080Z,27.20
2023-05-01T12:17:41.157Z,27.22
2023-05-01T12:18:41.162Z,27.22
2023-05-01T12:19:41.200Z,27.23
2023-05-01T12:20:41.225Z,27.22
2023-05-01T12:21:41.215Z,27.22
2023-05-01T12:22:41.288Z,27.20
2023-05-01T12:23:41.306Z,27.23
2023-05-01T12:24:41.363Z,27.23
2023-05-01T12:25:41.423Z,27.20
2023-05-01T12:26:41.463Z,27.22
2023-05-01T12:27:41.502Z,27.20
2023-05-01T12:28:41.553Z,27.22
2023-05-01T12:29:41.598Z,27.22
2023-05-01T12:30:41.618Z,27.18
2023-05-01T12:31:41.719Z,27.22
2023-05-01T12:32:41.715Z,27.20
2023-05-01T12:33:41.758Z,27.22
2023-05-01T12:34:41.798Z,27.22
2023-05-01T12:35:41.801Z,27.20
2023-05-01T12:36:41.873Z,27.16
2023-05-01T12:37:41.953Z,27.22
2023-05-01T12:38:41.973Z,27.22
2023-05-01T12:39:41.993Z,27.18
2023-05-01T12:40:42.014Z,27.20
2023-05-01T12:41:42.079Z,27.23
2023-05-01T12:42:42.105Z,27.20
2023-05-01T12:43:44.267Z,27.20
2023-05-01T12:44:42.225Z,27.20
2023-05-01T12:45:42.282Z,27.23
2023-05-01T12:46:42.321Z,27.20
2023-05-01T12:47:42.407Z,27.22
2023-05-01T12:48:42.371Z,27.20
2023-05-01T12:49:42.406Z,27.22
2023-05-01T12:50:42.489Z,27.22
2023-05-01T12:51:42.483Z,27.20
2023-05-01T12:52:42.573Z,27.20